Time;durP1;ratioP1;P1;durP2;ratioP2;P2;SDS_P1;SDS_P2;PMS_P1;PMS_P2;Temp;Humidity;BMP_temperature;BMP_pressure;BME280_temperature;BME280_humidity;BME280_pressure;Samples;Min_cycle;Max_cycle;Signal;HPM_P1;HPM_P2
2023/09/28 00:02:46;;;;;;;1385.20;588.08;;;17.10;99.90;;;;;;5113037;28;20071;-82
2023/09/28 00:05:15;;;;;;;1386.75;587.85;;;17.20;99.90;;;;;;5112949;28;20035;-82
2023/09/28 00:07:44;;;;;;;1386.22;592.65;;;17.10;99.90;;;;;;5112721;28;20048;-82
2023/09/28 00:10:11;;;;;;;1387.50;591.30;;;17.10;99.90;;;;;;5111838;28;20052;-81
2023/09/28 00:12:41;;;;;;;1383.53;590.28;;;17.10;99.90;;;;;;5112625;28;20036;-82
2023/09/28 00:15:09;;;;;;;1388.05;590.72;;;17.10;99.90;;;;;;5125850;28;20385;-82
2023/09/28 00:17:38;;;;;;;1382.93;697.77;;;17.10;99.90;;;;;;5091504;28;20048;-81
2023/09/28 00:20:09;;;;;;;1388.80;590.75;;;17.10;99.90;;;;;;5103560;28;20059;-82
2023/09/28 00:22:35;;;;;;;1397.75;595.47;;;17.10;99.90;;;;;;5112794;28;20040;-82
2023/09/28 00:25:01;;;;;;;1395.05;594.35;;;17.10;99.90;;;;;;5113010;28;20047;-81
2023/09/28 00:27:26;;;;;;;1382.70;680.53;;;17.10;99.90;;;;;;5112245;28;20039;-81
2023/09/28 00:29:52;;;;;;;1384.17;689.27;;;17.10;99.90;;;;;;5112405;28;20078;-82
2023/09/28 00:32:19;;;;;;;1391.57;592.17;;;17.10;99.90;;;;;;5111526;28;20048;-82
2023/09/28 00:34:45;;;;;;;1378.10;686.97;;;17.10;99.90;;;;;;5112305;28;20044;-82
2023/09/28 00:37:10;;;;;;;1400.85;599.38;;;16.90;99.90;;;;;;5112730;28;20043;-82
2023/09/28 00:39:36;;;;;;;1381.17;692.13;;;17.00;99.90;;;;;;5110959;28;20035;-81
2023/09/28 00:42:02;;;;;;;1377.60;683.73;;;17.00;99.90;;;;;;5112901;28;20099;-81
2023/09/28 00:44:28;;;;;;;1381.60;691.77;;;17.00;99.90;;;;;;5112896;28;20120;-82
2023/09/28 00:46:54;;;;;;;1383.77;693.20;;;17.00;99.90;;;;;;5112827;28;20472;-81
2023/09/28 00:49:19;;;;;;;1391.50;593.58;;;17.10;99.90;;;;;;5111898;28;20049;-82
2023/09/28 00:51:47;;;;;;;1393.50;591.95;;;17.10;99.90;;;;;;5113278;28;20040;-82
2023/09/28 00:54:13;;;;;;;1386.18;587.83;;;17.10;99.90;;;;;;5116412;28;20086;-82
2023/09/28 00:56:40;;;;;;;1387.03;685.47;;;17.10;99.90;;;;;;5116423;28;20039;-82
2023/09/28 00:59:05;;;;;;;1384.60;587.28;;;17.10;99.90;;;;;;5116210;28;20047;-82
2023/09/28 01:01:31;;;;;;;1380.47;690.83;;;17.10;99.90;;;;;;5115714;28;20032;-82
2023/09/28 01:04:00;;;;;;;1382.13;677.63;;;17.10;99.90;;;;;;5114506;28;20047;-82
2023/09/28 01:06:26;;;;;;;1390.57;591.85;;;17.10;99.90;;;;;;5115965;28;20612;-83
2023/09/28 01:08:56;;;;;;;1393.40;592.88;;;17.10;99.90;;;;;;5115989;28;20126;-82
2023/09/28 01:11:22;;;;;;;1394.07;593.43;;;17.10;99.90;;;;;;5116019;28;20046;-83
2023/09/28 01:13:49;;;;;;;1379.00;673.00;;;17.20;99.90;;;;;;5111109;28;20036;-81
2023/09/28 01:16:14;;;;;;;1382.87;696.27;;;17.20;99.90;;;;;;5095670;28;20040;-81
2023/09/28 01:18:40;;;;;;;1384.10;684.27;;;17.20;99.90;;;;;;5095458;28;20047;-82
2023/09/28 01:21:06;;;;;;;1388.78;594.20;;;17.20;99.90;;;;;;5095207;28;20075;-83
2023/09/28 01:23:32;;;;;;;1386.93;594.05;;;17.20;99.90;;;;;;5112867;28;20039;-82
2023/09/28 01:25:58;;;;;;;1386.83;586.47;;;17.20;99.90;;;;;;5114621;28;20082;-82
2023/09/28 01:28:24;;;;;;;1380.50;689.30;;;17.20;99.90;;;;;;5113893;28;20083;-84
2023/09/28 01:30:50;;;;;;;1383.70;586.97;;;17.20;99.90;;;;;;5115456;28;20495;-83
2023/09/28 01:33:16;;;;;;;1387.22;592.92;;;17.20;99.90;;;;;;5113915;28;20126;-81
2023/09/28 01:35:42;;;;;;;1384.20;702.17;;;17.20;99.90;;;;;;5115334;28;20127;-82
2023/09/28 01:38:10;;;;;;;1384.33;589.90;;;17.20;99.90;;;;;;5115361;28;20070;-82
2023/09/28 01:40:38;;;;;;;1388.43;589.70;;;17.20;99.90;;;;;;5115513;28;20040;-82
2023/09/28 01:43:04;;;;;;;1379.77;676.17;;;17.10;99.90;;;;;;5113590;28;20050;-82
2023/09/28 01:45:30;;;;;;;1382.33;696.53;;;17.10;99.90;;;;;;5115249;28;20054;-82
2023/09/28 01:47:55;;;;;;;1384.97;594.05;;;17.10;99.90;;;;;;5115295;28;20049;-82
2023/09/28 01:50:21;;;;;;;1379.63;682.53;;;17.20;99.90;;;;;;5115196;28;20546;-82
2023/09/28 01:52:47;;;;;;;1382.70;689.27;;;17.20;99.90;;;;;;5115290;28;20036;-82
2023/09/28 01:55:13;;;;;;;1366.97;583.17;;;17.20;99.90;;;;;;5114807;28;20044;-83
2023/09/28 01:57:39;;;;;;;1378.80;690.80;;;17.30;99.90;;;;;;5113724;28;20043;-82
2023/09/28 02:00:15;;;;;;;1380.50;692.37;;;17.30;99.90;;;;;;5115092;28;20052;-82
2023/09/28 02:02:43;;;;;;;1380.63;690.10;;;17.30;99.90;;;;;;5114662;28;20051;-82
2023/09/28 02:05:08;;;;;;;1388.17;695.87;;;17.40;99.90;;;;;;5113979;28;20047;-82
2023/09/28 02:07:36;;;;;;;1350.90;576.58;;;17.40;99.90;;;;;;5114226;28;20415;-81
2023/09/28 02:10:04;;;;;;;1383.37;695.27;;;17.40;99.90;;;;;;5094618;28;20042;-82
2023/09/28 02:12:30;;;;;;;1376.83;676.20;;;17.50;99.90;;;;;;5094494;28;20048;-81
2023/09/28 02:14:56;;;;;;;1382.93;580.03;;;17.60;99.90;;;;;;5094480;28;20036;-82
2023/09/28 02:17:22;;;;;;;1392.47;594.07;;;17.60;99.90;;;;;;5094461;28;20051;-82
2023/09/28 02:19:48;;;;;;;1384.00;691.47;;;17.60;99.90;;;;;;5094359;28;20047;-81
2023/09/28 02:22:14;;;;;;;1384.03;696.53;;;17.60;99.90;;;;;;5106707;28;20047;-81
2023/09/28 02:24:39;;;;;;;1405.60;595.47;;;17.60;99.90;;;;;;5114398;28;20055;-82
2023/09/28 02:27:05;;;;;;;1410.10;601.28;;;17.60;99.90;;;;;;5113991;27;20051;-81
2023/09/28 02:29:31;;;;;;;1376.63;675.53;;;17.50;99.90;;;;;;5112965;28;20048;-82
2023/09/28 02:31:56;;;;;;;1415.83;596.77;;;17.50;99.90;;;;;;5114544;28;20553;-82
2023/09/28 02:34:22;;;;;;;1423.10;605.97;;;17.50;99.90;;;;;;5112958;28;20069;-82
2023/09/28 02:36:48;;;;;;;1383.17;688.07;;;17.50;99.90;;;;;;5114488;28;20043;-81
2023/09/28 02:39:14;;;;;;;1422.63;599.43;;;17.50;99.90;;;;;;5114086;28;20399;-81
2023/09/28 02:41:40;;;;;;;1421.00;598.77;;;17.40;99.90;;;;;;5114273;28;20055;-81
2023/09/28 02:44:06;;;;;;;1424.83;602.77;;;17.40;99.90;;;;;;5114212;28;20044;-81
2023/09/28 02:46:31;;;;;;;1425.67;598.57;;;17.40;99.90;;;;;;5114258;28;20043;-82
2023/09/28 02:48:57;;;;;;;1380.80;686.83;;;17.50;99.90;;;;;;5113611;28;20132;-83
2023/09/28 02:51:23;;;;;;;1381.03;689.60;;;17.40;99.90;;;;;;5114251;28;20380;-81
2023/09/28 02:53:49;;;;;;;1385.23;699.60;;;17.40;99.90;;;;;;5113081;28;20093;-81
2023/09/28 02:56:14;;;;;;;1381.43;689.80;;;17.50;99.90;;;;;;5112370;28;20054;-82
2023/09/28 02:58:40;;;;;;;1382.33;692.63;;;17.50;99.90;;;;;;5113928;28;20081;-81
2023/09/28 03:01:07;;;;;;;1426.90;600.33;;;17.50;99.90;;;;;;5113557;27;20032;-81
2023/09/28 03:03:32;;;;;;;1428.27;605.97;;;17.50;99.90;;;;;;5113567;28;20434;-82
2023/09/28 03:05:58;;;;;;;1428.03;600.00;;;17.50;99.90;;;;;;5113037;28;20043;-83
2023/09/28 03:08:24;;;;;;;1428.83;603.27;;;17.50;99.90;;;;;;5112192;28;20434;-83
2023/09/28 03:10:53;;;;;;;1426.53;594.27;;;17.50;99.90;;;;;;5112443;28;20059;-82
2023/09/28 03:13:19;;;;;;;1426.20;601.20;;;17.40;99.90;;;;;;5095204;28;20096;-82
2023/09/28 03:15:45;;;;;;;1382.57;676.20;;;17.50;99.90;;;;;;5113474;28;20040;-81
2023/09/28 03:18:14;;;;;;;1379.97;681.73;;;17.40;99.90;;;;;;5113364;28;20491;-81
2023/09/28 03:20:44;;;;;;;1427.60;606.93;;;17.40;99.90;;;;;;5111849;28;20043;-84
2023/09/28 03:23:10;;;;;;;1420.17;596.20;;;17.40;99.90;;;;;;5113287;28;20044;-82
2023/09/28 03:25:36;;;;;;;1384.47;677.77;;;17.40;99.90;;;;;;5113801;28;20507;-83
2023/09/28 03:28:02;;;;;;;1383.30;675.73;;;17.30;99.90;;;;;;5106531;28;20158;-81
2023/09/28 03:30:28;;;;;;;1410.53;590.90;;;17.30;99.90;;;;;;5093233;28;20036;-81
2023/09/28 03:32:56;;;;;;;1416.60;603.17;;;17.30;99.90;;;;;;5092991;28;20048;-82
2023/09/28 03:35:22;;;;;;;1415.47;597.90;;;17.30;99.90;;;;;;5091765;28;20040;-83
2023/09/28 03:37:53;;;;;;;1377.83;681.67;;;17.20;99.90;;;;;;5092053;28;20044;-83
2023/09/28 03:40:20;;;;;;;1419.13;603.03;;;17.20;99.90;;;;;;5103302;28;20503;-81
2023/09/28 03:42:50;;;;;;;1413.85;597.03;;;17.20;99.90;;;;;;5112927;28;20043;-82
2023/09/28 03:45:21;;;;;;;1379.10;681.17;;;17.10;99.90;;;;;;5113488;28;20047;-83
2023/09/28 03:47:52;;;;;;;1379.47;685.93;;;17.10;99.90;;;;;;5111989;28;20085;-86
2023/09/28 03:50:22;;;;;;;1417.63;599.73;;;17.10;99.90;;;;;;5111678;28;20543;-82
2023/09/28 03:52:48;;;;;;;1415.63;602.80;;;17.10;99.90;;;;;;5113385;28;20035;-81
2023/09/28 03:55:19;;;;;;;1417.77;603.27;;;17.00;99.90;;;;;;5113340;28;20040;-83
2023/09/28 03:57:44;;;;;;;1416.90;593.70;;;17.00;99.90;;;;;;5093724;28;20039;-82
2023/09/28 04:00:14;;;;;;;1381.03;686.87;;;17.00;99.90;;;;;;5103989;28;20434;-82
2023/09/28 04:02:44;;;;;;;1383.93;691.50;;;17.00;99.90;;;;;;5112786;28;20036;-84
2023/09/28 04:05:10;;;;;;;1381.97;679.07;;;17.00;99.90;;;;;;5113367;28;20048;-82
2023/09/28 04:07:36;;;;;;;1417.83;598.77;;;17.00;99.90;;;;;;5112945;28;20076;-82
2023/09/28 04:10:03;;;;;;;1382.80;690.83;;;17.00;99.90;;;;;;5113206;28;20058;-81
2023/09/28 04:12:29;;;;;;;1424.93;597.30;;;16.90;99.90;;;;;;5113140;28;20051;-83
2023/09/28 04:14:55;;;;;;;1382.17;685.87;;;16.90;99.90;;;;;;5112951;28;20408;-82
2023/09/28 04:17:21;;;;;;;1419.27;597.87;;;16.90;99.90;;;;;;5112619;28;20047;-82
2023/09/28 04:19:46;;;;;;;1379.37;679.20;;;16.90;99.90;;;;;;5112993;28;20050;-81
2023/09/28 04:22:13;;;;;;;1411.50;595.37;;;16.90;99.90;;;;;;5111799;28;20066;-83
2023/09/28 04:24:39;;;;;;;1408.67;597.17;;;16.90;99.90;;;;;;5110875;28;20114;-81
2023/09/28 04:27:04;;;;;;;1382.87;686.30;;;16.80;99.90;;;;;;5115220;28;20200;-83
2023/09/28 04:29:30;;;;;;;1410.10;592.50;;;16.80;99.90;;;;;;5116697;28;20052;-82
2023/09/28 04:31:56;;;;;;;1379.80;677.77;;;16.80;99.90;;;;;;5116701;28;20608;-82
2023/09/28 04:34:21;;;;;;;1381.23;681.10;;;16.90;99.90;;;;;;5116851;27;20085;-83
2023/09/28 04:36:49;;;;;;;1411.90;599.53;;;16.80;99.90;;;;;;5115507;28;20123;-81
2023/09/28 04:39:17;;;;;;;1385.20;673.37;;;16.80;99.90;;;;;;5113304;28;20502;-83
2023/09/28 04:41:43;;;;;;;1381.13;680.83;;;16.80;99.90;;;;;;5115602;28;20055;-82
2023/09/28 04:44:09;;;;;;;1384.70;683.63;;;17.00;99.90;;;;;;5115565;28;20093;-81
2023/09/28 04:46:36;;;;;;;1386.03;674.97;;;16.80;99.90;;;;;;5116443;27;20079;-82
2023/09/28 04:49:02;;;;;;;1407.90;590.10;;;16.80;99.90;;;;;;5116665;28;20047;-81
2023/09/28 04:51:29;;;;;;;1384.67;666.30;;;16.70;99.90;;;;;;5116106;28;20051;-82
2023/09/28 04:53:54;;;;;;;1384.33;677.23;;;16.60;99.90;;;;;;5116134;28;20047;-82
2023/09/28 04:56:20;;;;;;;1408.10;594.73;;;16.70;99.90;;;;;;5116496;28;20085;-82
2023/09/28 04:58:46;;;;;;;1383.53;680.23;;;16.70;99.90;;;;;;5116047;28;20032;-82
2023/09/28 05:01:12;;;;;;;1380.40;667.53;;;16.60;99.90;;;;;;5115023;28;20050;-84
2023/09/28 05:03:38;;;;;;;1415.70;599.07;;;16.50;99.90;;;;;;5116026;28;20043;-82
2023/09/28 05:06:05;;;;;;;1381.03;665.37;;;16.60;99.90;;;;;;5114781;28;20035;-82
2023/09/28 05:08:31;;;;;;;1409.03;596.20;;;16.70;99.90;;;;;;5115158;28;20051;-81
2023/09/28 05:10:57;;;;;;;1383.63;664.50;;;16.60;99.90;;;;;;5115862;28;20027;-82
2023/09/28 05:13:31;;;;;;;1407.23;592.00;;;16.60;99.90;;;;;;5114108;28;20055;-82
2023/09/28 05:15:57;;;;;;;1385.73;667.90;;;16.60;99.90;;;;;;5116053;28;20122;-82
2023/09/28 05:18:23;;;;;;;1407.87;593.53;;;16.60;99.90;;;;;;5115030;28;20380;-82
2023/09/28 05:20:50;;;;;;;1374.27;666.37;;;16.50;99.90;;;;;;5115354;27;20039;-85
2023/09/28 05:23:16;;;;;;;1407.70;593.43;;;16.50;99.90;;;;;;5115720;28;20036;-82
2023/09/28 05:25:42;;;;;;;1379.10;677.10;;;16.50;99.90;;;;;;5114433;28;20623;-82
2023/09/28 05:28:09;;;;;;;1404.03;588.20;;;16.40;99.90;;;;;;5101031;28;20060;-83
2023/09/28 05:30:35;;;;;;;1407.20;592.67;;;16.40;99.90;;;;;;5095263;28;20084;-82
2023/09/28 05:33:01;;;;;;;1382.23;669.73;;;16.40;99.90;;;;;;5093843;28;20123;-83
2023/09/28 05:35:27;;;;;;;1379.10;668.60;;;16.40;99.90;;;;;;5095317;28;20117;-83
2023/09/28 05:37:53;;;;;;;1377.57;669.20;;;16.40;99.90;;;;;;5094790;28;20094;-83
2023/09/28 05:40:19;;;;;;;1407.65;591.13;;;16.30;99.90;;;;;;5110162;28;20446;-82
2023/09/28 05:42:44;;;;;;;1383.00;667.73;;;16.30;99.90;;;;;;5114471;28;20047;-81
2023/09/28 05:45:10;;;;;;;1407.03;593.17;;;16.30;99.90;;;;;;5115144;28;20032;-81
2023/09/28 05:47:36;;;;;;;1384.60;669.13;;;16.20;99.90;;;;;;5114969;28;20043;-82
2023/09/28 05:50:04;;;;;;;1387.07;676.03;;;16.20;99.90;;;;;;5115158;28;20189;-82
2023/09/28 05:52:31;;;;;;;1381.80;658.10;;;16.20;99.90;;;;;;5114034;28;20040;-82
2023/09/28 05:54:57;;;;;;;1400.13;585.78;;;16.20;99.90;;;;;;5115027;28;20039;-81
2023/09/28 05:57:22;;;;;;;1400.17;586.80;;;16.20;99.90;;;;;;5114286;28;20473;-82
2023/09/28 05:59:49;;;;;;;1380.67;660.90;;;16.20;99.90;;;;;;5094620;28;20407;-81
2023/09/28 06:02:15;;;;;;;1400.67;588.23;;;16.20;99.90;;;;;;5095180;28;20048;-80
2023/09/28 06:04:41;;;;;;;1378.13;653.17;;;16.10;99.90;;;;;;5112593;28;20051;-82
2023/09/28 06:07:09;;;;;;;1379.37;655.03;;;16.10;99.90;;;;;;5113832;28;20043;-83
2023/09/28 06:09:35;;;;;;;1384.07;581.33;;;16.10;99.90;;;;;;5115780;28;20091;-84
2023/09/28 06:12:02;;;;;;;1379.37;659.93;;;16.10;99.90;;;;;;5114589;28;20043;-81
2023/09/28 06:14:27;;;;;;;1380.50;673.37;;;16.20;99.90;;;;;;5115645;27;20043;-82
2023/09/28 06:16:53;;;;;;;1376.78;575.28;;;16.20;99.90;;;;;;5114424;28;20101;-81
2023/09/28 06:19:19;;;;;;;1381.40;584.60;;;16.20;99.90;;;;;;5115483;28;20476;-83
2023/09/28 06:21:45;;;;;;;1383.63;678.40;;;16.20;99.90;;;;;;5114507;28;20086;-83
2023/09/28 06:24:11;;;;;;;1381.70;664.20;;;16.20;99.90;;;;;;5114979;28;20527;-87
2023/09/28 06:26:37;;;;;;;1382.00;658.53;;;16.20;99.90;;;;;;5115034;28;20039;-88
2023/09/28 06:29:04;;;;;;;1374.20;668.70;;;16.20;99.90;;;;;;5114303;28;20063;-84
2023/09/28 06:31:30;;;;;;;1374.70;583.22;;;16.20;99.90;;;;;;5114421;28;20035;-81
2023/09/28 06:33:56;;;;;;;1378.38;664.92;;;16.20;99.90;;;;;;5114905;28;20047;-84
2023/09/28 06:36:25;;;;;;;1372.40;577.80;;;16.30;99.90;;;;;;5116096;28;20039;-81
2023/09/28 06:38:51;;;;;;;1370.60;572.38;;;16.30;99.90;;;;;;5115125;28;20081;-81
2023/09/28 06:41:17;;;;;;;1374.20;579.28;;;16.30;99.90;;;;;;5114659;28;20047;-90
2023/09/28 06:43:43;;;;;;;1370.82;578.45;;;16.30;99.90;;;;;;5115245;28;20180;-85
2023/09/28 06:46:09;;;;;;;1379.47;585.65;;;16.30;99.90;;;;;;5114790;28;20048;-81
2023/09/28 06:48:35;;;;;;;1373.45;583.17;;;16.50;99.90;;;;;;5113384;28;20114;-81
2023/09/28 06:51:01;;;;;;;1372.22;574.85;;;16.50;99.90;;;;;;5113321;28;20050;-81
2023/09/28 06:53:27;;;;;;;1373.38;582.65;;;16.50;99.90;;;;;;5114655;28;20043;-82
2023/09/28 06:55:55;;;;;;;1382.80;655.23;;;16.50;99.90;;;;;;5112491;28;20036;-81
2023/09/28 06:58:21;;;;;;;1382.30;659.40;;;16.60;99.90;;;;;;5113291;28;20043;-83
2023/09/28 07:00:47;;;;;;;1385.60;661.43;;;16.60;99.90;;;;;;5103948;28;20529;-81
2023/09/28 07:03:13;;;;;;;1388.80;665.50;;;16.60;99.90;;;;;;5109762;28;20036;-82
2023/09/28 07:05:40;;;;;;;1411.68;592.20;;;16.80;99.90;;;;;;5113465;28;20051;-80
2023/09/28 07:08:06;;;;;;;1382.70;657.77;;;16.80;99.90;;;;;;5112233;28;20047;-80
2023/09/28 07:10:36;;;;;;;1391.10;686.33;;;16.90;99.90;;;;;;5113423;28;20082;-84
2023/09/28 07:13:06;;;;;;;1427.97;597.30;;;16.90;99.90;;;;;;5113144;28;20050;-85
2023/09/28 07:15:36;;;;;;;1385.10;663.67;;;17.00;99.90;;;;;;5092807;28;20043;-81
2023/09/28 07:18:03;;;;;;;1434.80;599.45;;;17.00;99.90;;;;;;5110665;28;20122;-81
2023/09/28 07:20:29;;;;;;;1429.60;599.40;;;17.10;99.90;;;;;;5113964;28;20108;-80
2023/09/28 07:22:56;;;;;;;1420.65;588.33;;;17.30;99.90;;;;;;5112178;28;20120;-80
2023/09/28 07:25:23;;;;;;;1388.23;681.00;;;17.30;99.90;;;;;;5113268;28;20439;-84
2023/09/28 07:27:55;;;;;;;1426.10;593.50;;;17.40;99.90;;;;;;5112944;28;20062;-82
2023/09/28 07:30:20;;;;;;;1421.60;589.15;;;17.40;99.90;;;;;;5113225;28;20126;-83
2023/09/28 07:32:47;;;;;;;1423.28;594.78;;;17.50;99.90;;;;;;5094938;28;20139;-81
2023/09/28 07:35:16;;;;;;;1398.63;689.30;;;17.50;99.90;;;;;;5112005;28;20039;-81
2023/09/28 07:37:43;;;;;;;1400.03;680.40;;;17.60;99.90;;;;;;5113434;28;20040;-80
2023/09/28 07:40:17;;;;;;;1437.10;596.63;;;17.70;99.90;;;;;;5113400;28;20050;-80
2023/09/28 07:42:44;;;;;;;1426.82;598.15;;;17.70;99.90;;;;;;5113138;28;20055;-81
2023/09/28 07:45:13;;;;;;;1420.43;593.28;;;17.80;99.90;;;;;;5112596;28;20043;-81
2023/09/28 07:47:40;;;;;;;1398.47;698.30;;;17.80;99.90;;;;;;5112042;28;20484;-81
2023/09/28 07:50:06;;;;;;;1395.07;697.37;;;17.90;99.90;;;;;;5113166;28;20548;-81
2023/09/28 07:52:32;;;;;;;1430.93;598.97;;;17.90;99.90;;;;;;5113353;28;20032;-81
2023/09/28 07:54:58;;;;;;;1400.20;706.30;;;18.00;99.90;;;;;;5112836;28;20073;-80
2023/09/28 07:57:23;;;;;;;1399.17;704.17;;;18.10;99.90;;;;;;5112205;28;20077;-81
2023/09/28 07:59:49;;;;;;;1401.68;593.90;;;18.20;99.90;;;;;;5112060;28;20554;-81
2023/09/28 08:02:15;;;;;;;1399.20;718.30;;;18.30;99.90;;;;;;5117399;28;20108;-80
2023/09/28 08:04:41;;;;;;;1410.85;597.85;;;18.30;99.90;;;;;;5116847;28;20031;-80
2023/09/28 08:07:06;;;;;;;1405.60;723.43;;;18.40;99.90;;;;;;5117139;28;20408;-80
2023/09/28 08:09:33;;;;;;;1401.40;718.43;;;18.40;99.90;;;;;;5115990;28;20097;-79
2023/09/28 08:11:59;;;;;;;1407.20;724.78;;;18.50;99.90;;;;;;5117309;28;20065;-80
2023/09/28 08:14:24;;;;;;;1399.95;715.33;;;18.60;99.90;;;;;;5116617;28;20043;-80
2023/09/28 08:16:51;;;;;;;1413.47;608.28;;;18.60;99.90;;;;;;5115661;28;20048;-82
2023/09/28 08:19:19;;;;;;;1421.40;612.78;;;18.70;99.90;;;;;;5117203;28;20104;-81
2023/09/28 08:21:45;;;;;;;1403.22;724.13;;;18.70;99.90;;;;;;5116985;28;20054;-80
2023/09/28 08:24:11;;;;;;;1423.27;611.97;;;18.70;99.90;;;;;;5115692;28;20039;-80
2023/09/28 08:26:37;;;;;;;1405.93;732.40;;;18.70;99.90;;;;;;5116516;28;20069;-80
2023/09/28 08:29:04;;;;;;;1435.57;608.33;;;18.80;99.90;;;;;;5116523;28;20061;-81
2023/09/28 08:31:31;;;;;;;1413.40;737.00;;;18.80;99.90;;;;;;5115433;28;20043;-80
2023/09/28 08:34:00;;;;;;;1448.43;613.10;;;19.00;99.90;;;;;;5116617;27;20412;-80
2023/09/28 08:36:29;;;;;;;1444.93;615.57;;;19.00;99.90;;;;;;5116265;28;20415;-81
2023/09/28 08:38:56;;;;;;;1404.13;729.53;;;19.10;99.90;;;;;;5096225;28;20122;-81
2023/09/28 08:41:46;;;;;;;1442.23;619.77;;;19.20;99.90;;;;;;5095058;28;20040;-83
2023/09/28 08:44:13;;;;;;;1405.87;735.37;;;19.30;99.90;;;;;;5096257;28;20114;-80
2023/09/28 08:46:40;;;;;;;1439.78;615.25;;;19.40;99.90;;;;;;5101725;28;20068;-83
2023/09/28 08:49:07;;;;;;;1407.03;741.07;;;19.40;99.90;;;;;;5115721;28;20043;-81
2023/09/28 08:51:38;;;;;;;1408.83;745.07;;;19.50;99.90;;;;;;5116424;28;20040;-82
2023/09/28 08:54:05;;;;;;;1411.63;744.80;;;19.60;99.90;;;;;;5116428;28;20055;-81
2023/09/28 08:56:41;;;;;;;1407.00;742.47;;;19.60;99.90;;;;;;5114774;28;20040;-80
2023/09/28 08:59:09;;;;;;;1412.27;746.53;;;19.70;99.90;;;;;;5116383;28;20089;-80
2023/09/28 09:01:36;;;;;;;1408.87;750.60;;;19.80;99.90;;;;;;5116227;28;20044;-82
2023/09/28 09:04:03;;;;;;;1423.03;610.92;;;19.90;99.90;;;;;;5116103;28;20391;-81
2023/09/28 09:06:30;;;;;;;1421.45;608.22;;;19.90;99.90;;;;;;5116002;28;20047;-84
2023/09/28 09:09:06;;;;;;;1406.97;750.10;;;20.00;99.90;;;;;;5116029;28;20491;-80
2023/09/28 09:11:35;;;;;;;1412.75;763.47;;;20.00;99.90;;;;;;5115393;28;20511;-81
2023/09/28 09:14:00;;;;;;;1412.43;759.38;;;20.00;99.90;;;;;;5115062;28;20088;-80
2023/09/28 09:16:28;;;;;;;1419.85;611.13;;;20.00;99.90;;;;;;5114755;28;20039;-80
2023/09/28 09:18:57;;;;;;;1419.82;619.63;;;20.00;99.90;;;;;;5115479;28;20043;-80
2023/09/28 09:21:24;;;;;;;1420.32;620.85;;;20.00;99.90;;;;;;5115773;28;20039;-84
2023/09/28 09:24:18;;;;;;;1421.03;618.65;;;20.00;99.90;;;;;;5115578;28;20112;-80
2023/09/28 09:26:46;;;;;;;1407.28;756.65;;;20.00;99.90;;;;;;5115400;28;20503;-81
2023/09/28 09:29:13;;;;;;;1403.55;746.05;;;20.00;99.90;;;;;;5115362;28;20135;-80
2023/09/28 09:31:40;;;;;;;1410.93;765.20;;;20.00;99.90;;;;;;5114277;28;20050;-81
2023/09/28 09:34:13;;;;;;;1413.80;771.45;;;20.00;99.90;;;;;;5115453;28;20059;-80
2023/09/28 09:36:41;;;;;;;1398.78;618.33;;;20.00;99.90;;;;;;5115540;28;20050;-80
2023/09/28 09:39:08;;;;;;;1397.32;613.75;;;19.90;99.90;;;;;;5115726;28;20048;-80
2023/09/28 09:41:46;;;;;;;1405.63;754.17;;;19.90;99.90;;;;;;5115396;28;20086;-80
2023/09/28 09:44:24;;;;;;;1406.85;754.50;;;19.80;99.90;;;;;;5114102;28;20040;-80
2023/09/28 09:46:52;;;;;;;1399.28;612.60;;;19.80;99.90;;;;;;5115233;28;20086;-80
2023/09/28 09:49:23;;;;;;;1406.55;755.92;;;19.90;99.90;;;;;;5115318;28;20047;-80
2023/09/28 09:51:49;;;;;;;1404.93;763.03;;;19.90;99.90;;;;;;5114669;28;20043;-81
2023/09/28 09:54:16;;;;;;;1405.10;762.00;;;20.00;99.90;;;;;;5113859;28;20048;-80
2023/09/28 09:56:49;;;;;;;1406.75;766.80;;;20.10;99.90;;;;;;5115410;28;20427;-80
2023/09/28 09:59:22;;;;;;;1408.93;769.60;;;20.20;99.90;;;;;;5115022;27;20496;-81
2023/09/28 10:01:50;;;;;;;1379.15;616.28;;;20.30;99.90;;;;;;5114510;28;20032;-82
2023/09/28 10:04:17;;;;;;;1372.28;616.38;;;20.40;99.90;;;;;;5114971;28;20078;-81
2023/09/28 10:06:51;;;;;;;1409.43;781.25;;;20.40;99.90;;;;;;5113840;28;20055;-81
2023/09/28 10:09:19;;;;;;;1377.57;622.72;;;20.40;99.90;;;;;;5114852;28;20043;-82
2023/09/28 10:11:49;;;;;;;1405.38;774.70;;;20.40;99.90;;;;;;5115001;28;20089;-81
2023/09/28 10:14:21;;;;;;;1368.45;613.97;;;20.50;99.90;;;;;;5113543;28;20138;-80
2023/09/28 10:16:53;;;;;;;1405.43;774.40;;;20.50;99.90;;;;;;5113417;28;20059;-81
2023/09/28 10:19:21;;;;;;;1358.75;616.10;;;20.70;99.90;;;;;;5114833;28;20415;-82
2023/09/28 10:21:47;;;;;;;1357.38;616.15;;;20.60;99.90;;;;;;5113127;28;20044;-82
2023/09/28 10:24:15;;;;;;;1352.97;619.13;;;20.60;99.90;;;;;;5114195;28;20114;-81
2023/09/28 10:26:51;;;;;;;1406.85;775.80;;;20.70;99.90;;;;;;5114140;28;20509;-81
2023/09/28 10:29:29;;;;;;;1402.10;771.05;;;20.60;99.90;;;;;;5113603;28;20060;-81
2023/09/28 10:31:56;;;;;;;1405.32;777.72;;;20.70;99.90;;;;;;5112750;28;20400;-81
2023/09/28 10:34:24;;;;;;;1400.05;768.13;;;20.60;99.90;;;;;;5114012;28;20052;-82
2023/09/28 10:37:11;;;;;;;1372.78;623.70;;;20.50;99.90;;;;;;5114185;28;20101;-84
2023/09/28 10:39:38;;;;;;;1400.38;774.15;;;20.60;99.90;;;;;;5104066;28;20135;-82
2023/09/28 10:42:15;;;;;;;1363.18;614.63;;;20.50;99.90;;;;;;5086964;28;20047;-82
2023/09/28 10:44:48;;;;;;;1406.35;782.45;;;20.50;99.90;;;;;;5093786;28;20048;-82
2023/09/28 10:47:15;;;;;;;1401.03;780.80;;;20.50;99.90;;;;;;5097817;28;20040;-81
2023/09/28 10:49:40;;;;;;;1382.53;618.72;;;20.50;99.90;;;;;;5113890;28;20062;-82
2023/09/28 10:52:09;;;;;;;1399.28;770.53;;;20.50;99.90;;;;;;5095531;28;20392;-82
2023/09/28 10:54:36;;;;;;;1397.18;769.38;;;20.40;99.90;;;;;;5112694;28;20047;-82
2023/09/28 10:57:04;;;;;;;1382.05;615.30;;;20.40;99.90;;;;;;5108351;28;20043;-82
2023/09/28 10:59:30;;;;;;;1376.55;617.00;;;20.40;99.90;;;;;;5113813;28;20128;-83
2023/09/28 11:01:56;;;;;;;1398.65;774.03;;;20.40;99.90;;;;;;5112296;28;20487;-82
2023/09/28 11:04:22;;;;;;;1398.90;771.47;;;20.40;99.90;;;;;;5113879;28;20079;-82
2023/09/28 11:06:49;;;;;;;1398.10;768.30;;;20.50;99.90;;;;;;5112407;28;20480;-82
2023/09/28 11:09:18;;;;;;;1362.45;615.47;;;20.50;99.90;;;;;;5113717;28;20507;-82
2023/09/28 11:11:45;;;;;;;1368.78;623.40;;;20.50;99.90;;;;;;5113449;28;20554;-82
2023/09/28 11:14:11;;;;;;;1361.95;618.40;;;20.50;99.90;;;;;;5113305;28;20052;-81
2023/09/28 11:16:41;;;;;;;1358.80;622.10;;;20.50;99.90;;;;;;5112290;28;20127;-81
2023/09/28 11:19:09;;;;;;;1354.78;616.08;;;20.50;99.90;;;;;;5113441;28;20047;-81
2023/09/28 11:21:35;;;;;;;1401.45;781.67;;;20.40;99.90;;;;;;5113148;28;20499;-81
2023/09/28 11:24:02;;;;;;;1372.22;623.95;;;20.40;99.90;;;;;;5113720;28;20035;-81
2023/09/28 11:26:29;;;;;;;1393.40;622.53;;;20.40;99.90;;;;;;5099226;28;20083;-82
2023/09/28 11:28:57;;;;;;;1400.13;775.50;;;20.40;99.90;;;;;;5111241;28;20408;-82
2023/09/28 11:31:23;;;;;;;1408.28;622.75;;;20.30;99.90;;;;;;5113803;28;20452;-82
2023/09/28 11:33:49;;;;;;;1413.55;627.75;;;20.30;99.90;;;;;;5111780;28;20087;-85
2023/09/28 11:36:22;;;;;;;1400.18;774.17;;;20.30;99.90;;;;;;5112660;28;20039;-84
2023/09/28 11:38:49;;;;;;;1401.75;777.83;;;20.20;99.90;;;;;;5113400;28;20445;-82
2023/09/28 11:41:16;;;;;;;1395.95;761.63;;;20.20;99.90;;;;;;5111806;28;20040;-83
2023/09/28 11:43:46;;;;;;;1392.25;625.13;;;20.30;99.90;;;;;;5113539;28;20039;-83
2023/09/28 11:46:15;;;;;;;1399.30;778.80;;;20.20;99.90;;;;;;5113473;28;20039;-82
2023/09/28 11:48:41;;;;;;;1395.57;770.03;;;20.20;99.90;;;;;;5111371;28;20069;-83
2023/09/28 11:51:08;;;;;;;1395.15;767.92;;;20.20;99.90;;;;;;5112917;28;20043;-81
2023/09/28 11:53:40;;;;;;;1398.55;624.83;;;20.20;99.90;;;;;;5112994;28;20385;-83
2023/09/28 11:56:06;;;;;;;1400.07;616.10;;;20.20;99.90;;;;;;5111553;28;20593;-83
2023/09/28 11:58:34;;;;;;;1405.13;623.88;;;20.20;99.90;;;;;;5111822;28;20047;-85
2023/09/28 12:00:59;;;;;;;1405.18;774.78;;;20.10;99.90;;;;;;5113194;28;20598;-82